首页
METAR-TAF:

METAR-TAF

机场 :

Santee_Cooper_Regional_Airport

Manning, 南卡罗来纳州, 美国

纬度: 33-35N, 经度: 080-13W, 海拔: 32米

当前天气观测

该预报发布于12分钟前的10:35 UTC
风速7节,风向
温度 10°C
湿度 71%
气压 1018 hPa
能見度: 16.1公里
天空无云

METAR: KMNI 211035Z AUTO 36007KT 10SM CLR 10/05 A3005 RMK AO2

时间: 06:47 (10:47 UTC)


TAF: 丢失

超过4000个机场的气象观测和天气预报(METAR&TAF报告)。

可查询的气象台以黄色和红色小点在地图上表示。

将鼠标移到小点上方,可查看气象台名称。

然后点击查看天气观测和预报。

如需切换地图:点击带黑十字的绿色按钮放大地图;点击带横线的绿色按钮缩小地图;或者点击绿色箭头查看邻近地区的地图。


METAR-TAF: